Time;durP1;ratioP1;P1;durP2;ratioP2;P2;SDS_P1;SDS_P2;PMS_P1;PMS_P2;Temp;Humidity;BMP_temperature;BMP_pressure;BME280_temperature;BME280_humidity;BME280_pressure;Samples;Min_cycle;Max_cycle;Signal;HPM_P1;HPM_P2
2023/01/05 00:01:42;;;;;;;;;;;11.20;86.70;;;;;;5032505;28;19920;-37
2023/01/05 00:04:07;;;;;;;;;;;11.10;86.80;;;;;;5010839;28;19917;-36
2023/01/05 00:06:33;;;;;;;;;;;11.20;86.90;;;;;;5012276;28;19921;-35
2023/01/05 00:08:59;;;;;;;;;;;11.10;86.90;;;;;;5012300;28;19914;-36
2023/01/05 00:22:29;;;;;;;;;;;11.00;87.30;;;;;;5012350;28;20281;-36
2023/01/05 00:24:55;;;;;;;;;;;10.90;87.40;;;;;;5012197;28;19960;-36
2023/01/05 00:27:21;;;;;;;;;;;10.90;87.50;;;;;;5012148;28;19920;-36
2023/01/05 00:29:46;;;;;;;;;;;10.80;87.50;;;;;;5012057;28;19921;-36
2023/01/05 00:32:12;;;;;;;;;;;10.80;87.60;;;;;;5012138;28;20361;-45
2023/01/05 00:34:37;;;;;;;;;;;10.80;87.70;;;;;;5012053;28;20005;-37
2023/01/05 00:37:03;;;;;;;;;;;10.70;87.70;;;;;;5012341;28;19945;-37
2023/01/05 00:39:28;;;;;;;;;;;10.70;87.90;;;;;;5012027;28;19914;-36
2023/01/05 00:41:53;;;;;;;;;;;10.70;88.00;;;;;;5012113;28;19980;-38
2023/01/05 00:44:19;;;;;;;;;;;10.70;88.00;;;;;;5011849;28;19913;-36
2023/01/05 00:46:44;;;;;;;;;;;10.70;88.10;;;;;;5011858;28;19923;-37
2023/01/05 00:49:10;;;;;;;;;;;10.70;88.20;;;;;;5011895;28;19952;-35
2023/01/05 00:51:35;;;;;;;;;;;10.60;88.10;;;;;;5011901;28;20085;-36
2023/01/05 00:54:01;;;;;;;;;;;10.60;88.20;;;;;;5011866;28;19924;-36
2023/01/05 00:56:27;;;;;;;;;;;10.60;88.10;;;;;;5014551;28;19959;-35
2023/01/05 00:58:53;;;;;;;;;;;10.60;88.20;;;;;;5016060;28;19963;-36
2023/01/05 01:01:18;;;;;;;;;;;10.60;88.30;;;;;;5015672;28;19924;-36
2023/01/05 01:03:44;;;;;;;;;;;10.60;89.00;;;;;;5024278;28;20295;-38
2023/01/05 01:06:12;;;;;;;;;;;10.50;88.50;;;;;;5034636;28;20319;-37
2023/01/05 01:08:37;;;;;;;;;;;10.50;88.50;;;;;;5035291;28;19948;-36
2023/01/05 01:11:04;;;;;;;;;;;10.50;88.60;;;;;;5034917;28;19960;-36
2023/01/05 01:13:30;;;;;;;;;;;10.50;88.70;;;;;;5034953;28;19913;-36
2023/01/05 01:15:55;;;;;;;;;;;10.50;88.80;;;;;;5035055;28;19921;-42
2023/01/05 01:18:22;;;;;;;;;;;10.50;88.80;;;;;;5034843;28;19920;-36
2023/01/05 01:20:47;;;;;;;;;;;10.50;88.80;;;;;;5034644;28;19959;-36
2023/01/05 01:23:13;;;;;;;;;;;10.50;88.90;;;;;;5034787;28;19917;-36
2023/01/05 01:25:38;;;;;;;;;;;10.40;88.80;;;;;;5034503;28;19917;-36
2023/01/05 01:28:04;;;;;;;;;;;10.50;88.90;;;;;;5034572;28;19913;-35
2023/01/05 01:30:30;;;;;;;;;;;10.50;88.80;;;;;;5034692;28;19913;-36
2023/01/05 01:32:55;;;;;;;;;;;10.50;88.90;;;;;;5034541;28;19920;-34
2023/01/05 01:35:21;;;;;;;;;;;10.50;88.90;;;;;;5034339;28;19913;-36
2023/01/05 01:37:46;;;;;;;;;;;10.50;88.90;;;;;;5034403;28;19957;-34
2023/01/05 01:40:12;;;;;;;;;;;10.50;89.00;;;;;;5034520;28;19913;-36
2023/01/05 01:42:38;;;;;;;;;;;10.50;89.00;;;;;;5034617;28;19996;-34
2023/01/05 01:45:21;;;;;;;;;;;10.50;89.10;;;;;;5034533;28;20027;-45
2023/01/05 01:47:50;;;;;;;;;;;10.50;89.10;;;;;;5034486;28;20400;-36
2023/01/05 01:50:18;;;;;;;;;;;10.50;89.10;;;;;;5034200;28;20016;-36
2023/01/05 01:52:46;;;;;;;;;;;10.50;89.10;;;;;;5034160;28;19939;-38
2023/01/05 01:55:12;;;;;;;;;;;10.50;89.20;;;;;;5034051;28;19967;-36
2023/01/05 01:57:38;;;;;;;;;;;10.50;89.20;;;;;;5034000;28;19913;-37
2023/01/05 02:00:05;;;;;;;;;;;10.50;89.20;;;;;;5034083;28;19917;-36
2023/01/05 02:02:31;;;;;;;;;;;10.50;89.20;;;;;;5034033;28;19920;-36
2023/01/05 02:04:59;;;;;;;;;;;10.60;89.20;;;;;;5033817;28;20296;-37
2023/01/05 02:07:28;;;;;;;;;;;10.60;89.30;;;;;;5034022;28;19961;-37
2023/01/05 02:09:53;;;;;;;;;;;10.60;89.30;;;;;;5016107;28;19913;-45
2023/01/05 02:12:18;;;;;;;;;;;10.60;89.30;;;;;;5033773;28;19967;-35
2023/01/05 02:15:04;;;;;;;;;;;10.60;89.20;;;;;;5033785;28;19966;-38
2023/01/05 02:17:35;;;;;;;;;;;10.60;89.20;;;;;;5033592;28;19920;-36
2023/01/05 02:20:04;;;;;;;;;;;10.60;89.20;;;;;;5033672;28;19917;-36
2023/01/05 02:22:47;;;;;;;;;;;10.60;89.20;;;;;;5033572;28;19978;-35
2023/01/05 02:25:35;;;;;;;;;;;10.60;89.20;;;;;;5033451;28;19952;-36
2023/01/05 02:28:09;;;;;;;;;;;10.70;89.30;;;;;;5034033;28;19913;-36
2023/01/05 02:30:58;;;;;;;;;;;10.70;89.20;;;;;;5033646;28;19913;-36
2023/01/05 02:33:29;;;;;;;;;;;10.70;89.20;;;;;;5015768;28;19913;-36
2023/01/05 02:36:04;;;;;;;;;;;10.70;89.20;;;;;;5033521;28;20449;-38
2023/01/05 02:38:34;;;;;;;;;;;10.70;89.10;;;;;;5033409;28;19913;-35
2023/01/05 02:41:05;;;;;;;;;;;10.70;89.10;;;;;;5033310;28;19913;-36
2023/01/05 02:43:30;;;;;;;;;;;10.70;89.10;;;;;;5033288;28;19959;-36
2023/01/05 02:45:56;;;;;;;;;;;10.70;89.10;;;;;;5033188;28;19916;-37
2023/01/05 02:48:21;;;;;;;;;;;10.70;89.10;;;;;;5033304;28;20003;-37
2023/01/05 02:50:52;;;;;;;;;;;10.70;89.10;;;;;;5033222;28;20361;-36
2023/01/05 02:53:24;;;;;;;;;;;10.70;89.70;;;;;;5033223;28;19913;-35
2023/01/05 02:55:53;;;;;;;;;;;10.70;89.10;;;;;;5032923;28;19913;-36
2023/01/05 02:58:30;;;;;;;;;;;10.70;89.10;;;;;;5033116;28;20221;-37
2023/01/05 03:00:59;;;;;;;;;;;10.70;89.00;;;;;;5032842;28;19913;-36
2023/01/05 03:03:30;;;;;;;;;;;10.80;89.00;;;;;;5032597;28;19917;-37
2023/01/05 03:06:00;;;;;;;;;;;10.80;89.00;;;;;;5033109;28;19921;-37
2023/01/05 03:08:26;;;;;;;;;;;10.70;88.90;;;;;;5032821;28;20058;-36
2023/01/05 03:13:58;;;;;;;;;;;10.80;88.90;;;;;;5032786;28;19955;-36
2023/01/05 03:16:26;;;;;;;;;;;10.80;88.90;;;;;;5032692;28;20411;-36
2023/01/05 03:35:36;;;;;;;;;;;10.90;88.80;;;;;;5032253;28;19923;-35
2023/01/05 03:38:09;;;;;;;;;;;10.80;88.70;;;;;;5032346;28;19921;-36
2023/01/05 03:40:36;;;;;;;;;;;10.90;88.70;;;;;;5032437;28;20278;-37
2023/01/05 03:43:03;;;;;;;;;;;10.90;88.80;;;;;;5032536;28;20288;-37
2023/01/05 03:45:51;;;;;;;;;;;10.90;88.80;;;;;;5032633;28;19924;-36
2023/01/05 03:48:17;;;;;;;;;;;10.80;88.60;;;;;;5024016;28;19921;-36
2023/01/05 03:50:42;;;;;;;;;;;10.90;88.60;;;;;;5032450;28;19960;-36
2023/01/05 03:53:08;;;;;;;;;;;10.90;88.70;;;;;;5014407;28;20259;-36
2023/01/05 03:55:33;;;;;;;;;;;10.90;88.60;;;;;;5031865;28;19913;-36
2023/01/05 03:57:59;;;;;;;;;;;10.90;88.60;;;;;;5032095;28;19913;-35
2023/01/05 04:00:25;;;;;;;;;;;10.90;88.60;;;;;;5031984;28;19913;-37
2023/01/05 04:02:51;;;;;;;;;;;10.90;88.60;;;;;;5032099;28;19920;-42
2023/01/05 04:05:16;;;;;;;;;;;10.90;88.60;;;;;;5032323;28;20292;-37
2023/01/05 04:07:42;;;;;;;;;;;10.90;88.60;;;;;;5032654;28;19913;-37
2023/01/05 04:10:07;;;;;;;;;;;10.90;88.50;;;;;;5032045;28;19974;-36
2023/01/05 04:12:33;;;;;;;;;;;10.90;88.50;;;;;;5032140;28;19920;-35
2023/01/05 04:14:58;;;;;;;;;;;10.90;88.40;;;;;;5032092;28;19956;-36
2023/01/05 04:17:24;;;;;;;;;;;10.90;88.50;;;;;;5032145;28;19921;-40
2023/01/05 04:19:49;;;;;;;;;;;10.90;88.50;;;;;;5032215;28;19948;-36
2023/01/05 04:22:15;;;;;;;;;;;10.90;88.60;;;;;;5032270;28;20434;-47
2023/01/05 04:24:40;;;;;;;;;;;10.90;88.50;;;;;;5031964;28;20004;-36
2023/01/05 04:27:06;;;;;;;;;;;10.90;88.60;;;;;;5031766;28;20289;-37
2023/01/05 04:29:31;;;;;;;;;;;10.90;88.40;;;;;;5031887;28;19917;-36
2023/01/05 04:31:57;;;;;;;;;;;10.90;88.50;;;;;;5035756;28;19913;-42
2023/01/05 04:34:22;;;;;;;;;;;10.90;88.60;;;;;;5035822;28;20007;-35
2023/01/05 04:36:48;;;;;;;;;;;10.90;88.60;;;;;;5035706;28;19917;-38
2023/01/05 04:39:14;;;;;;;;;;;10.80;88.50;;;;;;5035738;28;19924;-38
2023/01/05 04:41:39;;;;;;;;;;;10.90;88.60;;;;;;5035525;28;19913;-34
2023/01/05 04:44:05;;;;;;;;;;;10.90;88.60;;;;;;5035591;28;20285;-36
2023/01/05 04:46:30;;;;;;;;;;;10.80;88.50;;;;;;5035527;28;20019;-36
2023/01/05 04:48:56;;;;;;;;;;;10.90;88.60;;;;;;5035533;28;19913;-36
2023/01/05 04:51:21;;;;;;;;;;;10.90;88.50;;;;;;5035454;28;19913;-35
2023/01/05 04:53:47;;;;;;;;;;;10.80;88.50;;;;;;5035558;28;20360;-37
2023/01/05 04:56:12;;;;;;;;;;;10.80;88.50;;;;;;5035341;28;19928;-44
2023/01/05 04:58:38;;;;;;;;;;;10.80;88.60;;;;;;5035511;28;20399;-36
2023/01/05 05:01:03;;;;;;;;;;;10.80;88.60;;;;;;5017553;28;19923;-43
2023/01/05 05:03:29;;;;;;;;;;;10.90;88.70;;;;;;5035131;28;19921;-35
2023/01/05 05:05:54;;;;;;;;;;;10.80;88.70;;;;;;5034991;28;19935;-36
2023/01/05 05:08:20;;;;;;;;;;;10.80;88.80;;;;;;5035319;28;19979;-35
2023/01/05 05:10:45;;;;;;;;;;;10.80;88.80;;;;;;5035213;28;19963;-35
2023/01/05 05:13:11;;;;;;;;;;;10.80;88.90;;;;;;5035075;28;19913;-36
2023/01/05 05:15:36;;;;;;;;;;;10.80;89.00;;;;;;5035050;28;19917;-38
2023/01/05 05:18:02;;;;;;;;;;;10.80;89.00;;;;;;5035239;28;20364;-36
2023/01/05 05:20:27;;;;;;;;;;;10.80;89.10;;;;;;5035105;28;19917;-36
2023/01/05 05:22:53;;;;;;;;;;;10.80;89.20;;;;;;5034980;28;20369;-34
2023/01/05 05:25:18;;;;;;;;;;;10.70;89.10;;;;;;5034703;28;19936;-37
2023/01/05 05:27:44;;;;;;;;;;;10.80;89.20;;;;;;5034924;28;20457;-37
2023/01/05 05:30:09;;;;;;;;;;;10.80;89.30;;;;;;5034802;28;19959;-37
2023/01/05 05:32:35;;;;;;;;;;;10.80;89.20;;;;;;5034914;28;19913;-37
2023/01/05 05:35:00;;;;;;;;;;;10.80;89.30;;;;;;5035163;28;19945;-37
2023/01/05 05:37:26;;;;;;;;;;;10.80;89.30;;;;;;5034867;28;19913;-48
2023/01/05 05:39:51;;;;;;;;;;;10.80;89.20;;;;;;5034682;28;20000;-37
2023/01/05 05:42:17;;;;;;;;;;;10.80;89.80;;;;;;5034390;28;19913;-39
2023/01/05 05:44:42;;;;;;;;;;;10.80;89.20;;;;;;5034776;28;20327;-37
2023/01/05 05:47:08;;;;;;;;;;;10.90;89.20;;;;;;5035077;28;19917;-36
2023/01/05 05:49:33;;;;;;;;;;;10.90;89.30;;;;;;5034396;28;20007;-37
2023/01/05 05:51:59;;;;;;;;;;;10.90;89.20;;;;;;5034642;28;19913;-36
2023/01/05 05:54:24;;;;;;;;;;;10.90;89.20;;;;;;5034690;28;19921;-37
2023/01/05 05:56:50;;;;;;;;;;;10.90;89.20;;;;;;5016570;28;20368;-36
2023/01/05 05:59:15;;;;;;;;;;;10.90;89.20;;;;;;5034358;28;20007;-38
2023/01/05 06:01:41;;;;;;;;;;;10.90;89.20;;;;;;5034310;28;20051;-37
2023/01/05 06:04:06;;;;;;;;;;;10.90;89.30;;;;;;5034113;28;19917;-38
2023/01/05 06:06:32;;;;;;;;;;;10.90;89.20;;;;;;5034044;28;19921;-37
2023/01/05 06:08:57;;;;;;;;;;;10.90;89.20;;;;;;5034272;28;19919;-37
2023/01/05 06:11:22;;;;;;;;;;;10.90;89.20;;;;;;5034180;28;19935;-37
2023/01/05 06:13:48;;;;;;;;;;;10.90;89.20;;;;;;5033977;28;19917;-36
2023/01/05 06:16:14;;;;;;;;;;;10.90;89.20;;;;;;5033850;28;20313;-37
2023/01/05 06:18:39;;;;;;;;;;;10.90;89.20;;;;;;5034010;28;19952;-35
2023/01/05 06:21:05;;;;;;;;;;;10.90;89.20;;;;;;5033756;28;20338;-37
2023/01/05 06:23:30;;;;;;;;;;;10.90;89.20;;;;;;5033745;28;19920;-35
2023/01/05 06:25:56;;;;;;;;;;;10.90;89.20;;;;;;5034073;28;19917;-38
2023/01/05 06:28:21;;;;;;;;;;;10.90;89.20;;;;;;5033656;28;19920;-38
2023/01/05 06:30:47;;;;;;;;;;;10.90;89.30;;;;;;5033865;28;19921;-37
2023/01/05 06:33:12;;;;;;;;;;;10.90;89.30;;;;;;5033961;28;20418;-43
2023/01/05 06:35:38;;;;;;;;;;;10.90;89.30;;;;;;5033851;28;20020;-39
2023/01/05 06:38:03;;;;;;;;;;;11.00;89.40;;;;;;5033870;28;19917;-37
2023/01/05 06:40:29;;;;;;;;;;;10.90;89.30;;;;;;5033602;28;20372;-38
2023/01/05 06:42:54;;;;;;;;;;;11.00;89.40;;;;;;5033592;28;19920;-37
2023/01/05 06:45:20;;;;;;;;;;;11.00;89.40;;;;;;5033321;28;19913;-37
2023/01/05 06:47:45;;;;;;;;;;;10.90;89.30;;;;;;5033716;28;19993;-37
2023/01/05 06:50:11;;;;;;;;;;;10.90;89.30;;;;;;5033691;28;20456;-37
2023/01/05 06:52:38;;;;;;;;;;;11.00;89.40;;;;;;5032804;28;20009;-38
2023/01/05 06:55:08;;;;;;;;;;;10.90;89.40;;;;;;5033161;28;19952;-37
2023/01/05 06:57:35;;;;;;;;;;;11.00;89.40;;;;;;5033098;28;20430;-37
2023/01/05 07:00:05;;;;;;;;;;;11.00;89.40;;;;;;5033449;28;19917;-36
2023/01/05 07:02:31;;;;;;;;;;;11.00;89.50;;;;;;5033104;28;20003;-37
2023/01/05 07:04:56;;;;;;;;;;;11.00;89.60;;;;;;5032843;28;20419;-37
2023/01/05 07:07:22;;;;;;;;;;;10.90;89.50;;;;;;5032918;28;20335;-37
2023/01/05 07:09:48;;;;;;;;;;;11.00;89.70;;;;;;5032973;28;19913;-38
2023/01/05 07:12:14;;;;;;;;;;;11.00;89.70;;;;;;5033032;28;19917;-39
2023/01/05 07:14:39;;;;;;;;;;;11.00;89.70;;;;;;5032856;28;19913;-40
2023/01/05 07:17:05;;;;;;;;;;;10.90;89.70;;;;;;5033116;28;19920;-45
2023/01/05 07:19:30;;;;;;;;;;;10.90;89.70;;;;;;5015143;28;19913;-36
2023/01/05 07:21:56;;;;;;;;;;;11.00;89.80;;;;;;5032611;28;20000;-37
2023/01/05 07:24:22;;;;;;;;;;;10.90;89.80;;;;;;5032728;28;19913;-37
2023/01/05 07:26:47;;;;;;;;;;;10.90;89.80;;;;;;5032647;28;20451;-38
2023/01/05 07:29:13;;;;;;;;;;;10.90;89.90;;;;;;5032695;28;20108;-39
2023/01/05 07:31:38;;;;;;;;;;;10.90;90.00;;;;;;5032868;28;19940;-39
2023/01/05 07:34:04;;;;;;;;;;;10.90;90.00;;;;;;5032521;28;20376;-42
2023/01/05 07:36:29;;;;;;;;;;;10.90;90.00;;;;;;5032647;28;20415;-37
2023/01/05 07:38:55;;;;;;;;;;;10.90;90.00;;;;;;5032469;28;19913;-36
2023/01/05 07:41:20;;;;;;;;;;;11.00;90.00;;;;;;5032561;28;20300;-36
2023/01/05 07:43:49;;;;;;;;;;;11.00;90.00;;;;;;5032374;28;19944;-46
2023/01/05 07:46:14;;;;;;;;;;;10.90;90.00;;;;;;5032521;28;19917;-36
2023/01/05 07:48:40;;;;;;;;;;;11.00;90.00;;;;;;5032358;28;20420;-36
2023/01/05 07:51:06;;;;;;;;;;;11.00;90.00;;;;;;5032433;28;19939;-37
2023/01/05 07:53:33;;;;;;;;;;;11.00;90.00;;;;;;5032392;28;19972;-37
2023/01/05 07:56:00;;;;;;;;;;;11.00;89.90;;;;;;5032699;28;20007;-40
2023/01/05 07:58:26;;;;;;;;;;;11.00;89.90;;;;;;5032482;28;20332;-37
2023/01/05 08:00:51;;;;;;;;;;;11.00;89.90;;;;;;5032232;28;19913;-35
2023/01/05 08:03:17;;;;;;;;;;;11.00;89.90;;;;;;5032259;28;19917;-37
2023/01/05 08:05:43;;;;;;;;;;;11.00;89.80;;;;;;5032143;28;19922;-36
2023/01/05 08:08:08;;;;;;;;;;;11.00;89.80;;;;;;5032202;28;20356;-36
2023/01/05 08:10:34;;;;;;;;;;;11.00;89.80;;;;;;5032012;28;19917;-35
2023/01/05 08:15:44;;;;;;;;;;;11.10;89.80;;;;;;5032349;28;20341;-37
2023/01/05 08:18:10;;;;;;;;;;;11.10;89.60;;;;;;5032131;28;19952;-37
2023/01/05 08:20:35;;;;;;;;;;;11.10;89.60;;;;;;5032226;28;19919;-37
2023/01/05 08:23:00;;;;;;;;;;;11.10;89.50;;;;;;5031832;28;19987;-36
2023/01/05 08:25:27;;;;;;;;;;;11.10;89.50;;;;;;5031885;28;19914;-36
2023/01/05 08:27:52;;;;;;;;;;;11.10;89.40;;;;;;5031909;28;19913;-36
2023/01/05 08:30:18;;;;;;;;;;;11.10;89.40;;;;;;5032079;28;20275;-38
2023/01/05 08:32:43;;;;;;;;;;;11.10;89.40;;;;;;5014047;28;19916;-36
2023/01/05 08:35:09;;;;;;;;;;;11.10;89.40;;;;;;5031810;28;19917;-37
2023/01/05 08:37:34;;;;;;;;;;;11.10;89.40;;;;;;5032057;28;19936;-37
2023/01/05 08:40:00;;;;;;;;;;;11.10;89.40;;;;;;5031911;28;19910;-44
2023/01/05 08:42:25;;;;;;;;;;;11.20;89.40;;;;;;5031722;28;19978;-36
2023/01/05 08:44:51;;;;;;;;;;;11.10;89.20;;;;;;5031734;28;19909;-34
2023/01/05 08:47:16;;;;;;;;;;;11.20;89.20;;;;;;5031677;28;19968;-36
2023/01/05 08:49:42;;;;;;;;;;;11.20;89.10;;;;;;5032075;28;19909;-37
2023/01/05 08:52:07;;;;;;;;;;;11.10;89.10;;;;;;5031720;28;19909;-37
2023/01/05 08:54:34;;;;;;;;;;;11.20;89.10;;;;;;5031879;28;19952;-36
2023/01/05 08:56:59;;;;;;;;;;;11.20;89.00;;;;;;5031660;28;19917;-39
2023/01/05 08:59:24;;;;;;;;;;;11.20;89.00;;;;;;5032128;28;19913;-36
2023/01/05 09:01:50;;;;;;;;;;;11.20;88.80;;;;;;5031676;28;20387;-36
2023/01/05 09:04:15;;;;;;;;;;;11.20;88.80;;;;;;5031351;28;19986;-42
2023/01/05 09:06:41;;;;;;;;;;;11.20;88.80;;;;;;5031644;28;19924;-36
2023/01/05 09:09:07;;;;;;;;;;;11.20;88.90;;;;;;5031652;28;19909;-37
2023/01/05 09:11:33;;;;;;;;;;;11.20;88.90;;;;;;5031793;28;19909;-36
2023/01/05 09:14:01;;;;;;;;;;;11.20;88.70;;;;;;5031761;28;19913;-37
2023/01/05 09:16:28;;;;;;;;;;;11.20;88.60;;;;;;5032876;28;19928;-37
2023/01/05 09:18:56;;;;;;;;;;;11.20;88.70;;;;;;5035054;28;19913;-37
2023/01/05 09:21:21;;;;;;;;;;;11.20;88.80;;;;;;5017249;28;19909;-36
2023/01/05 09:23:47;;;;;;;;;;;11.20;88.80;;;;;;5034845;28;19909;-37
2023/01/05 09:26:14;;;;;;;;;;;11.10;88.70;;;;;;5034872;28;20453;-37
2023/01/05 09:28:39;;;;;;;;;;;11.20;88.60;;;;;;5035107;28;19964;-37
2023/01/05 09:31:08;;;;;;;;;;;11.20;88.20;;;;;;5034955;28;19909;-36
2023/01/05 09:33:34;;;;;;;;;;;11.20;88.50;;;;;;5034947;28;20343;-35
2023/01/05 09:36:00;;;;;;;;;;;11.20;88.40;;;;;;5034954;28;20230;-38
2023/01/05 09:38:25;;;;;;;;;;;11.20;88.30;;;;;;5034759;28;19956;-37
2023/01/05 09:40:54;;;;;;;;;;;11.20;89.00;;;;;;5034683;28;19909;-36
2023/01/05 09:43:32;;;;;;;;;;;11.20;88.30;;;;;;5034776;28;20051;-37
2023/01/05 09:45:58;;;;;;;;;;;11.20;88.30;;;;;;5034468;28;19913;-50
2023/01/05 09:48:24;;;;;;;;;;;11.20;88.10;;;;;;5034442;28;19966;-36
2023/01/05 18:30:24;;;;;;;;;;;11.40;89.30;;;;;;5736455;23;19920;-78
2023/01/05 18:32:50;;;;;;;;;;;11.40;89.30;;;;;;4996135;23;19926;-81
2023/01/05 18:35:16;;;;;;;;;;;11.40;89.30;;;;;;4995337;28;19916;-80
2023/01/05 18:37:41;;;;;;;;;;;11.40;89.30;;;;;;4995561;28;19910;-81
2023/01/05 18:40:08;;;;;;;;;;;11.50;89.40;;;;;;4995099;28;19960;-81
2023/01/05 18:42:34;;;;;;;;;;;11.50;89.40;;;;;;4996950;28;19914;-83
2023/01/05 18:45:00;;;;;;;;;;;11.50;89.40;;;;;;4996926;28;19910;-83
2023/01/05 18:47:25;;;;;;;;;;;11.50;89.50;;;;;;4997898;28;19929;-81
2023/01/05 18:49:52;;;;;;;;;;;11.50;89.50;;;;;;4996128;28;20381;-82
2023/01/05 18:52:17;;;;;;;;;;;11.50;89.50;;;;;;4998168;28;19956;-82
2023/01/05 18:54:44;;;;;;;;;;;11.50;89.50;;;;;;4997307;28;20385;-82
2023/01/05 18:57:09;;;;;;;;;;;11.50;89.50;;;;;;4995585;28;19910;-80
2023/01/05 18:59:35;;;;;;;;;;;11.50;89.50;;;;;;4995271;28;20272;-79
2023/01/05 19:02:00;;;;;;;;;;;11.50;89.50;;;;;;4995271;28;19968;-81
2023/01/05 19:04:26;;;;;;;;;;;11.60;89.60;;;;;;4994864;28;19910;-81
2023/01/05 19:06:52;;;;;;;;;;;11.60;89.60;;;;;;4996256;28;20276;-81
2023/01/05 19:09:17;;;;;;;;;;;11.60;89.60;;;;;;4997242;28;19913;-80
2023/01/05 19:11:44;;;;;;;;;;;11.60;89.60;;;;;;4994434;28;19921;-82
2023/01/05 19:14:10;;;;;;;;;;;11.60;89.60;;;;;;4995604;28;19948;-81
2023/01/05 19:16:35;;;;;;;;;;;11.70;89.70;;;;;;4995482;28;19964;-81
2023/01/05 19:19:07;;;;;;;;;;;11.70;89.70;;;;;;4994918;28;19910;-82
2023/01/05 19:21:33;;;;;;;;;;;11.60;89.60;;;;;;4996807;28;19909;-81
2023/01/05 19:23:59;;;;;;;;;;;11.70;89.60;;;;;;4994694;28;19936;-80
2023/01/05 19:26:27;;;;;;;;;;;11.70;89.70;;;;;;4995388;28;19918;-80
2023/01/05 19:28:53;;;;;;;;;;;11.70;89.70;;;;;;4995348;28;19913;-81
2023/01/05 19:31:20;;;;;;;;;;;11.70;89.70;;;;;;4995783;28;19929;-79
2023/01/05 19:33:45;;;;;;;;;;;11.70;89.70;;;;;;4998031;28;19914;-80
2023/01/05 19:36:14;;;;;;;;;;;11.80;89.80;;;;;;4998508;28;19937;-80
2023/01/05 19:38:40;;;;;;;;;;;11.80;89.80;;;;;;4997483;28;20454;-80
2023/01/05 19:41:07;;;;;;;;;;;11.80;89.80;;;;;;4996684;28;19953;-80
2023/01/05 19:43:33;;;;;;;;;;;11.80;89.80;;;;;;4998242;28;19965;-80
2023/01/05 19:45:59;;;;;;;;;;;11.80;89.90;;;;;;4998401;28;20370;-80
2023/01/05 19:48:25;;;;;;;;;;;11.80;90.00;;;;;;4999786;28;19910;-81
2023/01/05 19:50:58;;;;;;;;;;;11.90;89.90;;;;;;4996793;28;19913;-79
2023/01/05 19:53:24;;;;;;;;;;;11.90;90.00;;;;;;4997145;28;19917;-79
2023/01/05 19:55:50;;;;;;;;;;;11.90;90.00;;;;;;4997662;28;19909;-79
2023/01/05 19:58:15;;;;;;;;;;;11.90;90.00;;;;;;4996018;28;19910;-80
2023/01/05 20:00:41;;;;;;;;;;;11.90;90.00;;;;;;4995573;28;19917;-78
2023/01/05 20:03:06;;;;;;;;;;;11.90;90.00;;;;;;4996438;28;19909;-79
2023/01/05 20:05:31;;;;;;;;;;;11.90;90.00;;;;;;4996359;28;19914;-78
2023/01/05 20:07:57;;;;;;;;;;;11.90;90.10;;;;;;4994854;28;20308;-78
2023/01/05 20:10:22;;;;;;;;;;;11.90;90.00;;;;;;4994803;28;20002;-80
2023/01/05 20:12:49;;;;;;;;;;;11.90;90.00;;;;;;4994988;28;19909;-79
2023/01/05 20:15:15;;;;;;;;;;;11.90;90.10;;;;;;4995848;28;19909;-80
2023/01/05 20:17:42;;;;;;;;;;;11.90;90.10;;;;;;4996251;28;19964;-79
2023/01/05 20:20:08;;;;;;;;;;;11.90;90.10;;;;;;4996148;28;19933;-79
2023/01/05 20:22:34;;;;;;;;;;;12.00;90.10;;;;;;4995838;28;19909;-81
2023/01/05 20:24:59;;;;;;;;;;;12.00;90.10;;;;;;4994853;28;19909;-79
2023/01/05 20:27:25;;;;;;;;;;;12.00;90.20;;;;;;4996446;28;20384;-81
2023/01/05 20:29:50;;;;;;;;;;;12.00;90.20;;;;;;4994772;28;19945;-80
2023/01/05 20:32:18;;;;;;;;;;;12.00;90.20;;;;;;5008170;28;20364;-78
2023/01/05 20:34:44;;;;;;;;;;;12.00;90.20;;;;;;4998002;28;19960;-80
2023/01/05 20:37:10;;;;;;;;;;;12.10;90.20;;;;;;4996939;28;19909;-80
2023/01/05 20:39:36;;;;;;;;;;;12.10;90.20;;;;;;5014196;28;19909;-79
2023/01/05 20:42:04;;;;;;;;;;;12.10;90.20;;;;;;4997602;28;20260;-80
2023/01/05 20:44:31;;;;;;;;;;;12.10;90.30;;;;;;4997881;28;19988;-81
2023/01/05 20:46:59;;;;;;;;;;;12.00;90.20;;;;;;4996822;28;20368;-81
2023/01/05 20:49:25;;;;;;;;;;;12.00;90.30;;;;;;4997396;28;19909;-81
2023/01/05 20:51:51;;;;;;;;;;;12.10;90.30;;;;;;4997387;28;20012;-80
2023/01/05 20:54:16;;;;;;;;;;;12.10;90.30;;;;;;5000030;28;19956;-80
2023/01/05 20:56:42;;;;;;;;;;;12.10;90.30;;;;;;4996983;28;20364;-77
2023/01/05 20:59:11;;;;;;;;;;;12.10;90.30;;;;;;4992944;28;20288;-81
2023/01/05 21:01:36;;;;;;;;;;;12.10;90.30;;;;;;5013960;28;19909;-77
2023/01/05 21:04:03;;;;;;;;;;;12.10;90.30;;;;;;4996333;28;20016;-79
2023/01/05 21:06:28;;;;;;;;;;;12.10;90.30;;;;;;5010170;28;19913;-78
2023/01/05 21:08:55;;;;;;;;;;;12.10;90.30;;;;;;5012845;28;19909;-80
2023/01/05 21:11:24;;;;;;;;;;;12.10;90.30;;;;;;5013042;28;20364;-78
2023/01/05 21:13:53;;;;;;;;;;;12.10;90.30;;;;;;4998899;28;19916;-80
2023/01/05 21:16:29;;;;;;;;;;;12.10;90.30;;;;;;4998991;28;19916;-78
2023/01/05 21:18:55;;;;;;;;;;;12.00;90.30;;;;;;5016835;28;20000;-78
2023/01/05 21:21:21;;;;;;;;;;;12.00;90.40;;;;;;4998706;28;20373;-77
2023/01/05 21:23:48;;;;;;;;;;;12.00;90.40;;;;;;4998635;28;19909;-79
2023/01/05 21:26:13;;;;;;;;;;;12.00;90.40;;;;;;5016131;28;19921;-79
2023/01/05 21:28:39;;;;;;;;;;;12.00;90.40;;;;;;4998665;28;19910;-78
2023/01/05 21:31:06;;;;;;;;;;;12.00;90.40;;;;;;5016005;28;20368;-78
2023/01/05 21:33:32;;;;;;;;;;;12.00;90.40;;;;;;4998780;28;19910;-80
2023/01/05 21:35:58;;;;;;;;;;;11.90;90.40;;;;;;5016602;28;20320;-77
2023/01/05 21:38:23;;;;;;;;;;;11.90;90.40;;;;;;4998537;28;19928;-78
2023/01/05 21:40:49;;;;;;;;;;;11.90;90.40;;;;;;4998455;28;19909;-78
2023/01/05 21:43:14;;;;;;;;;;;11.90;90.40;;;;;;4998232;28;19913;-77
2023/01/05 21:45:40;;;;;;;;;;;11.90;90.40;;;;;;4998402;28;19913;-77
2023/01/05 21:48:06;;;;;;;;;;;11.90;90.40;;;;;;5016158;28;19917;-78
2023/01/05 21:58:45;;;;;;;;;;;11.90;90.30;;;;;;5016223;28;19944;-78
2023/01/05 22:01:10;;;;;;;;;;;11.90;90.30;;;;;;4998557;28;19909;-78
2023/01/05 22:03:36;;;;;;;;;;;12.00;90.30;;;;;;4998404;28;19963;-79
2023/01/05 22:06:01;;;;;;;;;;;11.90;90.20;;;;;;4998525;28;20044;-79
2023/01/05 22:08:27;;;;;;;;;;;11.90;90.20;;;;;;5015775;28;19910;-79
2023/01/05 22:10:56;;;;;;;;;;;11.90;90.20;;;;;;5015734;28;20357;-79
2023/01/05 22:13:23;;;;;;;;;;;11.90;90.20;;;;;;4998296;28;19917;-78
2023/01/05 22:15:50;;;;;;;;;;;11.90;90.20;;;;;;5015258;28;19952;-80
2023/01/05 22:18:19;;;;;;;;;;;11.90;90.20;;;;;;5015263;28;19917;-79
2023/01/05 22:20:45;;;;;;;;;;;11.90;90.40;;;;;;4997682;28;19909;-79
2023/01/05 22:23:12;;;;;;;;;;;11.90;90.20;;;;;;5015453;28;19956;-79
2023/01/05 22:25:38;;;;;;;;;;;11.90;90.10;;;;;;4998049;28;20380;-78
2023/01/05 22:28:04;;;;;;;;;;;11.90;90.10;;;;;;4997867;28;19957;-79
2023/01/05 22:30:29;;;;;;;;;;;11.90;90.10;;;;;;4997741;28;20360;-79
2023/01/05 22:32:55;;;;;;;;;;;11.80;90.10;;;;;;4998003;28;19924;-78
2023/01/05 22:35:20;;;;;;;;;;;11.80;90.10;;;;;;5015411;28;19910;-79
2023/01/05 22:37:46;;;;;;;;;;;11.80;90.00;;;;;;5015595;28;19960;-79
2023/01/05 22:40:11;;;;;;;;;;;11.80;90.00;;;;;;5015251;28;19909;-78
2023/01/05 22:42:37;;;;;;;;;;;11.80;90.00;;;;;;4998123;28;19916;-80
2023/01/05 22:45:03;;;;;;;;;;;11.80;90.00;;;;;;5015285;28;19964;-77
2023/01/05 22:47:28;;;;;;;;;;;11.70;90.00;;;;;;5014856;28;20284;-79
2023/01/05 22:49:53;;;;;;;;;;;11.70;89.80;;;;;;5015005;28;20388;-76
2023/01/05 22:52:19;;;;;;;;;;;11.70;89.90;;;;;;5014982;28;19941;-78
2023/01/05 22:54:44;;;;;;;;;;;11.70;89.90;;;;;;4997019;28;19933;-78
2023/01/05 22:57:10;;;;;;;;;;;11.80;90.00;;;;;;4997174;28;19963;-78
2023/01/05 22:59:35;;;;;;;;;;;11.70;89.80;;;;;;5015350;28;20380;-77
2023/01/05 23:02:01;;;;;;;;;;;11.70;89.80;;;;;;5010474;28;19916;-77
2023/01/05 23:04:26;;;;;;;;;;;11.80;89.90;;;;;;5015259;28;19910;-78
2023/01/05 23:06:52;;;;;;;;;;;11.80;89.80;;;;;;4997315;28;20122;-78
2023/01/05 23:09:17;;;;;;;;;;;11.80;89.80;;;;;;5015108;28;19939;-78
2023/01/05 23:11:43;;;;;;;;;;;11.80;89.80;;;;;;5014805;28;19914;-76
2023/01/05 23:14:09;;;;;;;;;;;11.80;89.80;;;;;;4996994;28;19909;-77
2023/01/05 23:16:35;;;;;;;;;;;11.80;89.80;;;;;;4997081;28;20319;-78
2023/01/05 23:19:01;;;;;;;;;;;11.80;89.70;;;;;;4996970;28;19913;-78
2023/01/05 23:21:27;;;;;;;;;;;11.80;89.70;;;;;;4997186;28;19910;-79
2023/01/05 23:23:53;;;;;;;;;;;11.80;89.60;;;;;;4997628;28;19920;-79
2023/01/05 23:26:19;;;;;;;;;;;11.80;89.60;;;;;;4997263;28;19920;-78
2023/01/05 23:28:46;;;;;;;;;;;11.80;89.50;;;;;;4996965;28;19949;-79
2023/01/05 23:31:15;;;;;;;;;;;11.80;89.50;;;;;;5013776;28;20013;-78
2023/01/05 23:33:41;;;;;;;;;;;11.80;89.50;;;;;;4996011;28;19909;-78